Time;durP1;ratioP1;P1;durP2;ratioP2;P2;SDS_P1;SDS_P2;PMS_P1;PMS_P2;Temp;Humidity;BMP_temperature;BMP_pressure;BME280_temperature;BME280_humidity;BME280_pressure;Samples;Min_cycle;Max_cycle;Signal;HPM_P1;HPM_P2
2023/06/05 00:00:40;;;;;;;;;;;11.10;99.90;;;;;;5092595;28;19928;-81
2023/06/05 00:03:06;;;;;;;;;;;11.00;99.90;;;;;;5088648;28;19935;-82
2023/06/05 00:05:32;;;;;;;;;;;10.90;99.90;;;;;;5093241;28;19927;-81
2023/06/05 00:07:57;;;;;;;;;;;10.90;99.90;;;;;;5090846;28;19939;-81
2023/06/05 00:10:23;;;;;;;;;;;10.90;99.90;;;;;;5076610;28;19966;-80
2023/06/05 00:12:49;;;;;;;;;;;10.80;99.90;;;;;;5090418;28;20019;-81
2023/06/05 00:15:15;;;;;;;;;;;10.90;99.90;;;;;;5091422;28;19993;-81
2023/06/05 00:17:41;;;;;;;;;;;10.80;99.90;;;;;;5088638;28;20003;-81
2023/06/05 00:20:09;;;;;;;;;;;10.80;99.90;;;;;;5096290;28;20372;-81
2023/06/05 00:22:35;;;;;;;;;;;10.70;99.90;;;;;;5088414;28;19976;-81
2023/06/05 00:25:01;;;;;;;;;;;10.70;99.90;;;;;;5098922;28;19928;-81
2023/06/05 00:27:27;;;;;;;;;;;10.60;99.90;;;;;;5095621;28;19924;-82
2023/06/05 00:29:53;;;;;;;;;;;10.70;99.90;;;;;;5085404;28;19936;-81
2023/06/05 00:32:18;;;;;;;;;;;10.60;99.90;;;;;;5096081;28;20286;-81
2023/06/05 00:34:44;;;;;;;;;;;10.50;99.90;;;;;;5090290;28;19940;-81
2023/06/05 00:37:11;;;;;;;;;;;10.50;99.90;;;;;;5091084;28;19935;-80
2023/06/05 00:39:36;;;;;;;;;;;10.40;99.90;;;;;;5092058;28;20454;-81
2023/06/05 00:42:02;;;;;;;;;;;10.50;99.90;;;;;;5084957;28;19932;-81
2023/06/05 00:44:28;;;;;;;;;;;10.40;99.90;;;;;;5095199;28;19932;-81
2023/06/05 00:46:53;;;;;;;;;;;10.30;99.90;;;;;;5074394;28;19953;-81
2023/06/05 00:49:19;;;;;;;;;;;10.30;99.90;;;;;;5094833;28;19927;-81
2023/06/05 00:51:45;;;;;;;;;;;10.40;99.90;;;;;;5090700;28;19964;-81
2023/06/05 00:54:16;;;;;;;;;;;10.30;99.90;;;;;;5087895;28;20204;-81
2023/06/05 00:56:42;;;;;;;;;;;10.40;99.90;;;;;;5088443;28;19935;-81
2023/06/05 00:59:08;;;;;;;;;;;10.30;99.90;;;;;;5091450;28;19927;-80
2023/06/05 01:01:34;;;;;;;;;;;10.20;99.90;;;;;;5084515;28;21518;-81
2023/06/05 01:04:02;;;;;;;;;;;10.10;99.90;;;;;;5094980;28;19924;-81
2023/06/05 01:06:30;;;;;;;;;;;10.10;99.90;;;;;;5081342;28;19983;-80
2023/06/05 01:08:57;;;;;;;;;;;10.10;99.90;;;;;;5093413;28;20365;-81
2023/06/05 01:11:32;;;;;;;;;;;10.10;99.90;;;;;;5086310;28;19935;-81
2023/06/05 01:14:00;;;;;;;;;;;10.10;99.90;;;;;;5096522;28;19932;-81
2023/06/05 01:16:30;;;;;;;;;;;10.00;99.90;;;;;;5097353;28;19923;-81
2023/06/05 01:19:02;;;;;;;;;;;10.00;99.90;;;;;;5090692;28;20404;-81
2023/06/05 01:21:31;;;;;;;;;;;10.00;99.90;;;;;;5088662;28;20410;-81
2023/06/05 01:23:58;;;;;;;;;;;10.00;99.90;;;;;;5090191;28;19932;-81
2023/06/05 01:26:27;;;;;;;;;;;10.00;99.90;;;;;;5089781;28;20376;-81
2023/06/05 01:28:53;;;;;;;;;;;10.00;99.90;;;;;;5074848;28;20042;-80
2023/06/05 01:31:20;;;;;;;;;;;9.90;99.90;;;;;;5089152;28;20018;-81
2023/06/05 01:33:50;;;;;;;;;;;9.80;99.90;;;;;;5095191;28;19927;-81
2023/06/05 01:36:16;;;;;;;;;;;9.80;99.90;;;;;;5090327;28;19935;-81
2023/06/05 01:38:43;;;;;;;;;;;9.90;99.90;;;;;;5090061;28;19967;-81
2023/06/05 01:41:10;;;;;;;;;;;9.90;99.90;;;;;;5071966;28;19939;-81
2023/06/05 01:43:36;;;;;;;;;;;10.00;99.90;;;;;;5086434;28;19924;-81
2023/06/05 01:46:02;;;;;;;;;;;9.90;99.90;;;;;;5088882;28;19931;-80
2023/06/05 01:48:27;;;;;;;;;;;9.80;99.90;;;;;;5086936;28;20397;-81
2023/06/05 01:50:59;;;;;;;;;;;9.80;99.90;;;;;;5098004;28;20011;-81
2023/06/05 01:53:25;;;;;;;;;;;9.80;99.90;;;;;;5093514;28;19927;-80
2023/06/05 01:55:56;;;;;;;;;;;9.70;99.90;;;;;;5090434;28;19959;-80
2023/06/05 01:58:22;;;;;;;;;;;9.80;99.90;;;;;;5095065;28;20361;-81
2023/06/05 02:00:48;;;;;;;;;;;9.70;99.90;;;;;;5091036;28;19972;-81
2023/06/05 02:03:15;;;;;;;;;;;9.70;99.90;;;;;;5087998;28;19969;-80
2023/06/05 02:05:41;;;;;;;;;;;9.60;99.90;;;;;;5092135;28;19982;-81
2023/06/05 02:08:09;;;;;;;;;;;9.60;99.90;;;;;;5091019;28;20038;-80
2023/06/05 02:10:35;;;;;;;;;;;9.60;99.90;;;;;;5092019;28;20373;-81
2023/06/05 02:13:01;;;;;;;;;;;9.60;99.90;;;;;;5088372;28;19939;-81
2023/06/05 02:15:28;;;;;;;;;;;9.50;99.90;;;;;;5085744;28;19932;-81
2023/06/05 02:17:54;;;;;;;;;;;9.60;99.90;;;;;;5090803;28;19977;-81
2023/06/05 02:20:25;;;;;;;;;;;9.50;99.90;;;;;;5088070;28;20600;-80
2023/06/05 02:22:51;;;;;;;;;;;9.50;99.90;;;;;;5091726;28;20388;-80
2023/06/05 02:25:17;;;;;;;;;;;9.50;99.90;;;;;;5087461;28;19978;-80
2023/06/05 02:27:43;;;;;;;;;;;9.60;99.90;;;;;;5086087;28;19928;-80
2023/06/05 02:30:09;;;;;;;;;;;9.50;99.90;;;;;;5090976;28;19928;-80
2023/06/05 02:32:35;;;;;;;;;;;9.50;99.90;;;;;;5086659;28;20015;-80
2023/06/05 02:35:04;;;;;;;;;;;9.50;99.90;;;;;;5086811;28;19928;-80
2023/06/05 02:37:37;;;;;;;;;;;9.50;99.90;;;;;;5090198;28;19932;-80
2023/06/05 02:40:07;;;;;;;;;;;9.50;99.90;;;;;;5087179;28;20384;-81
2023/06/05 02:42:34;;;;;;;;;;;9.40;99.90;;;;;;5088907;28;19932;-80
2023/06/05 02:44:59;;;;;;;;;;;9.50;99.90;;;;;;5084900;28;19928;-80
2023/06/05 02:47:25;;;;;;;;;;;9.40;99.90;;;;;;5076819;28;20000;-80
2023/06/05 02:49:50;;;;;;;;;;;9.40;99.90;;;;;;5088082;28;20027;-80
2023/06/05 02:52:16;;;;;;;;;;;9.40;99.90;;;;;;5090194;28;19927;-80
2023/06/05 02:54:41;;;;;;;;;;;9.40;99.90;;;;;;5094780;28;19924;-80
2023/06/05 02:57:08;;;;;;;;;;;9.40;99.90;;;;;;5093077;28;19974;-80
2023/06/05 02:59:39;;;;;;;;;;;9.40;99.90;;;;;;5090128;28;19932;-80
2023/06/05 03:02:05;;;;;;;;;;;9.40;99.90;;;;;;5090270;28;19932;-80
2023/06/05 03:04:32;;;;;;;;;;;9.40;99.90;;;;;;5091511;28;20413;-80
2023/06/05 03:07:03;;;;;;;;;;;9.40;99.90;;;;;;5098021;28;19966;-80
2023/06/05 03:09:29;;;;;;;;;;;9.40;99.90;;;;;;5091394;28;20405;-80
2023/06/05 03:11:55;;;;;;;;;;;9.30;99.90;;;;;;5096205;28;19928;-80
2023/06/05 03:14:20;;;;;;;;;;;9.40;99.90;;;;;;5099517;28;19934;-81
2023/06/05 03:16:46;;;;;;;;;;;9.30;99.90;;;;;;5092122;28;20392;-80
2023/06/05 03:19:12;;;;;;;;;;;9.40;99.90;;;;;;5094226;28;20763;-81
2023/06/05 03:21:40;;;;;;;;;;;9.30;99.90;;;;;;5097953;28;20373;-81
2023/06/05 03:24:14;;;;;;;;;;;9.40;99.90;;;;;;5094262;28;20005;-81
2023/06/05 03:26:43;;;;;;;;;;;9.30;99.90;;;;;;5074608;28;19932;-81
2023/06/05 03:29:10;;;;;;;;;;;9.30;99.90;;;;;;5096341;28;19928;-80
2023/06/05 03:31:35;;;;;;;;;;;9.40;99.90;;;;;;5094411;28;19946;-81
2023/06/05 03:34:02;;;;;;;;;;;9.40;99.90;;;;;;5091862;28;19928;-81
2023/06/05 03:36:28;;;;;;;;;;;9.40;99.90;;;;;;5081802;28;20487;-80
2023/06/05 03:38:54;;;;;;;;;;;9.50;99.90;;;;;;5094602;28;20010;-80
2023/06/05 03:41:20;;;;;;;;;;;9.40;99.90;;;;;;5100829;28;19946;-80
2023/06/05 03:43:46;;;;;;;;;;;9.50;99.90;;;;;;5100927;28;19951;-80
2023/06/05 03:46:18;;;;;;;;;;;9.40;99.90;;;;;;5096773;28;19931;-80
2023/06/05 03:48:44;;;;;;;;;;;9.50;99.90;;;;;;5089101;28;21954;-80
2023/06/05 03:51:09;;;;;;;;;;;9.60;99.90;;;;;;5094707;28;20632;-80
2023/06/05 03:53:39;;;;;;;;;;;9.50;99.90;;;;;;5094970;28;19943;-80
2023/06/05 03:56:05;;;;;;;;;;;9.60;99.90;;;;;;5093890;28;19950;-80
2023/06/05 03:58:31;;;;;;;;;;;9.60;99.90;;;;;;5096484;28;20385;-80
2023/06/05 04:00:57;;;;;;;;;;;9.70;99.90;;;;;;5094494;28;19924;-81
2023/06/05 04:03:23;;;;;;;;;;;9.70;99.90;;;;;;5077855;28;19928;-81
2023/06/05 04:05:48;;;;;;;;;;;9.70;99.90;;;;;;5101060;28;20001;-81
2023/06/05 04:08:14;;;;;;;;;;;9.80;99.90;;;;;;5097296;28;20030;-81
2023/06/05 04:10:40;;;;;;;;;;;9.90;99.90;;;;;;5094978;28;19928;-81
2023/06/05 04:13:05;;;;;;;;;;;9.80;99.90;;;;;;5096297;28;20658;-80
2023/06/05 04:15:31;;;;;;;;;;;9.90;99.90;;;;;;5094563;28;19935;-80
2023/06/05 04:17:57;;;;;;;;;;;9.90;99.90;;;;;;5091761;28;19932;-80
2023/06/05 04:20:22;;;;;;;;;;;9.90;99.90;;;;;;5094235;28;19923;-80
2023/06/05 04:22:48;;;;;;;;;;;10.10;99.90;;;;;;5074522;28;19978;-81
2023/06/05 04:25:14;;;;;;;;;;;10.10;99.90;;;;;;5101332;28;19970;-81
2023/06/05 04:27:40;;;;;;;;;;;10.10;99.90;;;;;;5094619;28;19989;-81
2023/06/05 04:30:07;;;;;;;;;;;10.10;99.90;;;;;;5098702;28;19923;-80
2023/06/05 04:32:34;;;;;;;;;;;10.20;99.90;;;;;;5095760;28;20285;-81
2023/06/05 04:35:00;;;;;;;;;;;10.30;99.90;;;;;;5077949;28;19928;-81
2023/06/05 04:37:26;;;;;;;;;;;10.60;99.90;;;;;;5089702;28;20464;-80
2023/06/05 04:39:52;;;;;;;;;;;10.70;99.90;;;;;;5097658;28;19931;-80
2023/06/05 04:42:17;;;;;;;;;;;10.80;99.90;;;;;;5097874;28;20003;-81
2023/06/05 04:44:43;;;;;;;;;;;10.90;99.90;;;;;;5096159;28;21186;-81
2023/06/05 04:47:09;;;;;;;;;;;12.70;99.90;;;;;;5098863;28;19927;-80
2023/06/05 04:49:35;;;;;;;;;;;13.80;99.90;;;;;;5096898;28;19935;-81
2023/06/05 04:52:00;;;;;;;;;;;14.90;99.90;;;;;;5099019;28;20034;-81
2023/06/05 04:54:26;;;;;;;;;;;15.40;99.90;;;;;;5099380;28;20300;-81
2023/06/05 04:56:52;;;;;;;;;;;16.30;99.90;;;;;;5099729;28;19954;-81
2023/06/05 04:59:18;;;;;;;;;;;16.80;99.90;;;;;;5098747;28;20367;-81
2023/06/05 05:01:44;;;;;;;;;;;17.10;99.90;;;;;;5091921;27;19924;-81
2023/06/05 05:04:11;;;;;;;;;;;17.90;99.90;;;;;;5100389;28;19971;-81
2023/06/05 05:06:37;;;;;;;;;;;17.90;99.90;;;;;;5099102;28;19928;-81
2023/06/05 05:09:03;;;;;;;;;;;18.50;99.90;;;;;;5096768;28;19932;-82
2023/06/05 05:11:29;;;;;;;;;;;18.60;99.90;;;;;;5087819;28;19928;-81
2023/06/05 05:13:54;;;;;;;;;;;19.30;99.90;;;;;;5096671;28;19934;-82
2023/06/05 05:16:20;;;;;;;;;;;19.30;99.90;;;;;;5090860;28;19974;-81
2023/06/05 05:18:46;;;;;;;;;;;19.90;99.90;;;;;;5088056;28;20020;-80
2023/06/05 05:21:11;;;;;;;;;;;19.80;99.90;;;;;;5092494;28;19976;-81
2023/06/05 05:23:37;;;;;;;;;;;20.40;99.90;;;;;;5091387;28;19935;-82
2023/06/05 05:26:03;;;;;;;;;;;20.20;99.90;;;;;;5073324;28;19935;-82
2023/06/05 05:28:29;;;;;;;;;;;20.60;99.90;;;;;;5090946;28;19932;-81
2023/06/05 05:30:58;;;;;;;;;;;20.00;99.90;;;;;;5092898;28;19944;-81
2023/06/05 05:33:24;;;;;;;;;;;20.80;99.90;;;;;;5093316;28;19977;-81
2023/06/05 05:35:50;;;;;;;;;;;20.90;99.90;;;;;;5097690;28;20018;-81
2023/06/05 05:38:16;;;;;;;;;;;20.60;99.90;;;;;;5081402;28;19986;-82
2023/06/05 05:40:41;;;;;;;;;;;20.20;99.90;;;;;;5089299;28;20687;-82
2023/06/05 05:43:07;;;;;;;;;;;19.90;99.90;;;;;;5097342;28;20523;-83
2023/06/05 05:45:33;;;;;;;;;;;19.20;99.90;;;;;;5081642;28;20009;-82
2023/06/05 05:47:59;;;;;;;;;;;17.50;99.90;;;;;;5080038;28;20308;-82
2023/06/05 05:50:24;;;;;;;;;;;17.00;99.90;;;;;;5087770;28;19933;-82
2023/06/05 05:52:52;;;;;;;;;;;17.00;99.90;;;;;;5085667;28;19932;-81
2023/06/05 05:55:18;;;;;;;;;;;16.70;99.90;;;;;;5070186;28;19932;-82
2023/06/05 05:57:44;;;;;;;;;;;16.20;99.90;;;;;;5071132;28;19935;-82
2023/06/05 06:00:12;;;;;;;;;;;16.50;99.90;;;;;;5092959;28;19985;-83
2023/06/05 06:02:38;;;;;;;;;;;16.40;99.90;;;;;;5089292;28;19930;-83
2023/06/05 06:05:05;;;;;;;;;;;16.50;99.90;;;;;;5088698;28;19928;-81
2023/06/05 06:07:31;;;;;;;;;;;16.90;99.90;;;;;;5084047;28;20096;-84
2023/06/05 06:09:56;;;;;;;;;;;17.00;99.90;;;;;;5081870;28;19938;-83
2023/06/05 06:12:22;;;;;;;;;;;16.80;99.90;;;;;;5083483;28;19928;-81
2023/06/05 06:14:48;;;;;;;;;;;16.80;99.90;;;;;;5084912;28;20071;-83
2023/06/05 06:17:14;;;;;;;;;;;17.00;99.90;;;;;;5091162;28;20299;-84
2023/06/05 06:19:40;;;;;;;;;;;17.20;99.90;;;;;;5091669;28;19923;-82
2023/06/05 06:22:11;;;;;;;;;;;17.50;99.90;;;;;;5098060;28;19928;-81
2023/06/05 06:24:38;;;;;;;;;;;17.20;99.90;;;;;;5067216;28;20419;-84
2023/06/05 06:27:04;;;;;;;;;;;17.20;99.90;;;;;;5080099;28;20014;-83
2023/06/05 06:29:31;;;;;;;;;;;17.50;99.90;;;;;;5085663;28;20022;-83
2023/06/05 06:31:56;;;;;;;;;;;17.40;99.90;;;;;;5092889;28;19927;-83
2023/06/05 06:34:22;;;;;;;;;;;17.30;99.90;;;;;;5095240;28;19928;-82
2023/06/05 06:36:47;;;;;;;;;;;17.50;99.90;;;;;;5095301;28;19928;-82
2023/06/05 06:39:13;;;;;;;;;;;16.90;99.90;;;;;;5096725;28;19971;-82
2023/06/05 06:41:39;;;;;;;;;;;17.30;99.90;;;;;;5093492;28;19924;-82
2023/06/05 06:44:05;;;;;;;;;;;17.40;99.90;;;;;;5096835;28;19924;-82
2023/06/05 06:46:31;;;;;;;;;;;17.00;99.90;;;;;;5097456;28;20560;-82
2023/06/05 06:48:57;;;;;;;;;;;17.70;99.90;;;;;;5090238;28;19927;-84
2023/06/05 06:51:22;;;;;;;;;;;17.50;99.90;;;;;;5093948;28;20338;-82
2023/06/05 06:53:48;;;;;;;;;;;17.60;99.90;;;;;;5090500;28;19924;-83
2023/06/05 06:56:15;;;;;;;;;;;18.00;99.90;;;;;;5096024;28;19923;-84
2023/06/05 06:58:42;;;;;;;;;;;17.90;99.90;;;;;;5089300;28;19931;-84
2023/06/05 07:01:08;;;;;;;;;;;17.80;99.90;;;;;;5082937;28;19975;-85
2023/06/05 07:03:34;;;;;;;;;;;17.80;99.90;;;;;;5082943;28;20050;-83
2023/06/05 07:06:00;;;;;;;;;;;17.90;99.90;;;;;;5090557;28;20625;-84
2023/06/05 07:08:25;;;;;;;;;;;18.10;99.90;;;;;;5097148;28;19932;-85
2023/06/05 07:10:55;;;;;;;;;;;17.90;99.90;;;;;;5094057;28;19932;-83
2023/06/05 07:13:20;;;;;;;;;;;18.40;99.90;;;;;;5073364;28;19931;-82
2023/06/05 07:15:46;;;;;;;;;;;18.40;99.90;;;;;;5085641;28;19927;-85
2023/06/05 07:18:12;;;;;;;;;;;18.20;99.90;;;;;;5093931;28;19928;-82
2023/06/05 07:20:37;;;;;;;;;;;18.00;99.90;;;;;;5089654;28;20669;-83
2023/06/05 07:23:03;;;;;;;;;;;18.70;99.90;;;;;;5093384;28;20574;-83
2023/06/05 07:25:29;;;;;;;;;;;17.80;99.90;;;;;;5067345;28;19924;-85
2023/06/05 07:27:54;;;;;;;;;;;18.20;99.90;;;;;;5097077;28;19928;-82
2023/06/05 07:30:20;;;;;;;;;;;18.40;99.90;;;;;;5098512;28;19935;-85
2023/06/05 07:32:46;;;;;;;;;;;18.40;99.90;;;;;;5089603;28;19974;-86
2023/06/05 07:35:12;;;;;;;;;;;18.40;99.90;;;;;;5075075;28;19927;-82
2023/06/05 07:37:38;;;;;;;;;;;18.40;99.90;;;;;;5092159;28;20062;-87
2023/06/05 07:40:05;;;;;;;;;;;18.70;99.90;;;;;;5098605;28;19935;-86
2023/06/05 07:42:31;;;;;;;;;;;19.30;99.90;;;;;;5078075;28;20019;-83
2023/06/05 07:44:56;;;;;;;;;;;18.30;99.90;;;;;;5087236;28;20022;-84
2023/06/05 07:47:22;;;;;;;;;;;18.10;99.90;;;;;;5097416;28;20038;-84
2023/06/05 07:49:59;;;;;;;;;;;18.50;99.90;;;;;;5090028;28;20579;-83
2023/06/05 07:52:24;;;;;;;;;;;18.70;99.90;;;;;;5090213;28;19924;-84
2023/06/05 07:54:50;;;;;;;;;;;19.30;99.90;;;;;;5086109;28;19986;-80
2023/06/05 07:57:17;;;;;;;;;;;18.90;99.90;;;;;;5080049;28;19934;-88
2023/06/05 07:59:43;;;;;;;;;;;18.80;99.90;;;;;;5079090;28;19923;-82
2023/06/05 08:02:08;;;;;;;;;;;19.20;99.90;;;;;;5096345;28;20430;-82
2023/06/05 08:04:35;;;;;;;;;;;19.10;99.90;;;;;;5081582;28;19963;-84
2023/06/05 08:07:06;;;;;;;;;;;19.80;99.90;;;;;;5095267;28;19935;-83
2023/06/05 08:09:33;;;;;;;;;;;19.70;99.90;;;;;;5077545;28;20403;-83
2023/06/05 08:11:59;;;;;;;;;;;20.00;99.90;;;;;;5094360;28;19933;-81
2023/06/05 08:14:25;;;;;;;;;;;20.40;99.90;;;;;;5098198;28;19928;-82
2023/06/05 08:16:51;;;;;;;;;;;19.50;99.90;;;;;;5095939;28;20456;-83
2023/06/05 08:19:17;;;;;;;;;;;19.60;99.90;;;;;;5082536;28;20014;-84
2023/06/05 08:21:42;;;;;;;;;;;19.20;99.90;;;;;;5096930;28;20012;-84
2023/06/05 08:24:08;;;;;;;;;;;19.50;99.90;;;;;;5099457;28;19935;-85
2023/06/05 08:26:33;;;;;;;;;;;19.90;99.90;;;;;;5102585;28;20006;-84
2023/06/05 08:28:59;;;;;;;;;;;19.80;99.90;;;;;;5098572;28;20060;-85
2023/06/05 08:31:25;;;;;;;;;;;20.10;99.90;;;;;;5097930;28;19935;-85
2023/06/05 08:33:51;;;;;;;;;;;19.70;99.90;;;;;;5076440;28;19932;-83
2023/06/05 08:36:17;;;;;;;;;;;20.40;99.90;;;;;;5103416;28;20409;-84
2023/06/05 08:38:43;;;;;;;;;;;20.10;99.90;;;;;;5099978;28;19927;-82
2023/06/05 08:41:10;;;;;;;;;;;20.10;99.90;;;;;;5099431;28;19934;-84
2023/06/05 08:43:38;;;;;;;;;;;20.30;99.90;;;;;;5099754;28;19930;-86
2023/06/05 08:46:04;;;;;;;;;;;20.10;99.90;;;;;;5097181;28;19931;-84
2023/06/05 08:48:31;;;;;;;;;;;20.40;99.90;;;;;;5097285;28;20320;-84
2023/06/05 08:50:58;;;;;;;;;;;20.70;99.90;;;;;;5094717;28;19969;-83
2023/06/05 08:53:25;;;;;;;;;;;21.00;99.90;;;;;;5110187;27;19928;-83
2023/06/05 08:55:51;;;;;;;;;;;20.60;99.90;;;;;;5099146;28;19931;-84
2023/06/05 08:58:16;;;;;;;;;;;20.60;99.90;;;;;;5114189;27;19973;-82
2023/06/05 09:00:42;;;;;;;;;;;20.70;99.90;;;;;;5097956;28;19938;-86
2023/06/05 09:03:10;;;;;;;;;;;20.60;99.90;;;;;;5096965;28;20132;-83
2023/06/05 09:05:35;;;;;;;;;;;20.60;99.90;;;;;;5096423;28;20304;-82
2023/06/05 09:08:01;;;;;;;;;;;20.60;99.90;;;;;;5099645;28;19924;-84
2023/06/05 09:10:27;;;;;;;;;;;21.30;99.90;;;;;;5100536;28;19923;-83
2023/06/05 09:12:56;;;;;;;;;;;21.30;99.90;;;;;;5092046;28;19928;-85
2023/06/05 09:15:26;;;;;;;;;;;20.80;99.90;;;;;;5100054;28;19927;-83
2023/06/05 09:18:11;;;;;;;;;;;21.20;99.90;;;;;;5097521;28;20346;-83
2023/06/05 09:20:38;;;;;;;;;;;21.10;99.90;;;;;;5086184;28;20020;-85
2023/06/05 09:23:20;;;;;;;;;;;21.50;99.90;;;;;;5099299;28;19938;-85
2023/06/05 09:25:50;;;;;;;;;;;21.30;99.90;;;;;;5095721;28;19932;-84
2023/06/05 09:28:16;;;;;;;;;;;21.30;99.90;;;;;;5093521;28;20077;-85
2023/06/05 09:31:00;;;;;;;;;;;21.70;99.90;;;;;;5100193;28;20007;-84
2023/06/05 09:33:28;;;;;;;;;;;21.80;99.90;;;;;;5095438;28;19935;-83
2023/06/05 09:36:07;;;;;;;;;;;21.50;99.90;;;;;;5099227;28;19985;-86
2023/06/05 09:38:33;;;;;;;;;;;22.20;99.90;;;;;;5079371;28;19962;-83
2023/06/05 09:41:08;;;;;;;;;;;22.30;99.90;;;;;;5102016;28;19959;-84
2023/06/05 09:43:34;;;;;;;;;;;22.00;99.90;;;;;;5083574;28;20370;-84
2023/06/05 09:46:26;;;;;;;;;;;22.20;99.90;;;;;;5083660;28;19981;-81
2023/06/05 09:48:57;;;;;;;;;;;21.90;99.90;;;;;;5076323;28;19938;-85
2023/06/05 09:51:22;;;;;;;;;;;21.70;99.90;;;;;;5099804;28;19951;-84
2023/06/05 09:53:49;;;;;;;;;;;22.20;99.90;;;;;;5072432;28;20815;-81
2023/06/05 09:56:19;;;;;;;;;;;22.40;99.90;;;;;;5103151;28;20667;-81
2023/06/05 09:58:46;;;;;;;;;;;22.10;99.90;;;;;;5096989;28;19928;-87
2023/06/05 10:01:14;;;;;;;;;;;22.00;99.90;;;;;;5097806;28;19935;-81
2023/06/05 10:03:40;;;;;;;;;;;22.30;99.90;;;;;;5085853;28;19928;-82
2023/06/05 10:06:06;;;;;;;;;;;22.50;99.90;;;;;;5069089;28;19940;-84
2023/06/05 10:08:32;;;;;;;;;;;22.30;99.90;;;;;;5087291;28;20603;-86
2023/06/05 10:10:58;;;;;;;;;;;22.70;99.90;;;;;;5087063;28;19968;-85
2023/06/05 10:13:23;;;;;;;;;;;22.50;99.90;;;;;;5075397;28;19928;-83
2023/06/05 10:15:50;;;;;;;;;;;22.90;99.90;;;;;;5088983;28;20038;-84
2023/06/05 10:18:16;;;;;;;;;;;22.60;99.90;;;;;;5086043;28;20389;-87
2023/06/05 10:20:42;;;;;;;;;;;22.60;99.90;;;;;;5071062;28;19982;-85
2023/06/05 10:23:08;;;;;;;;;;;23.10;99.90;;;;;;5091496;28;20393;-85
2023/06/05 10:25:34;;;;;;;;;;;22.80;99.90;;;;;;5094223;28;19966;-85
2023/06/05 10:28:19;;;;;;;;;;;22.50;99.90;;;;;;5092086;28;19929;-85
2023/06/05 10:30:55;;;;;;;;;;;22.70;99.90;;;;;;5096963;28;19928;-89
2023/06/05 10:33:46;;;;;;;;;;;23.00;99.90;;;;;;5097849;28;19924;-87
2023/06/05 10:36:12;;;;;;;;;;;23.40;99.90;;;;;;5096323;28;20419;-88
2023/06/05 10:38:39;;;;;;;;;;;22.90;99.90;;;;;;5093436;28;19948;-86
2023/06/05 10:41:05;;;;;;;;;;;23.10;99.90;;;;;;5094556;28;20289;-83
2023/06/05 10:43:32;;;;;;;;;;;23.00;99.90;;;;;;5095956;28;19934;-86
2023/06/05 10:46:01;;;;;;;;;;;23.00;99.90;;;;;;5094060;28;19928;-83
2023/06/05 10:48:46;;;;;;;;;;;23.10;99.90;;;;;;5091990;28;19949;-85
2023/06/05 10:51:30;;;;;;;;;;;23.70;99.90;;;;;;5092370;28;20381;-83
2023/06/05 10:53:56;;;;;;;;;;;23.90;99.90;;;;;;5090253;28;19934;-85
2023/06/05 10:56:40;;;;;;;;;;;23.50;99.90;;;;;;5084428;28;20363;-85
2023/06/05 10:59:13;;;;;;;;;;;23.90;99.90;;;;;;5086179;28;19930;-85
2023/06/05 11:01:39;;;;;;;;;;;23.90;99.90;;;;;;5082120;28;19985;-84
2023/06/05 11:04:04;;;;;;;;;;;23.60;99.90;;;;;;5091122;28;19927;-88
2023/06/05 11:06:30;;;;;;;;;;;23.90;99.90;;;;;;5096136;28;19959;-83
2023/06/05 11:09:06;;;;;;;;;;;23.90;99.90;;;;;;5082111;28;20050;-85
2023/06/05 11:11:51;;;;;;;;;;;23.70;99.90;;;;;;5095671;28;19932;-84
2023/06/05 11:14:17;;;;;;;;;;;24.00;99.90;;;;;;5097844;28;19934;-84
2023/06/05 11:16:42;;;;;;;;;;;24.30;99.90;;;;;;5082950;28;19932;-86
2023/06/05 11:19:21;;;;;;;;;;;24.30;99.90;;;;;;5077702;28;20049;-85
2023/06/05 11:22:02;;;;;;;;;;;24.70;99.90;;;;;;5094066;28;20080;-83
2023/06/05 11:24:28;;;;;;;;;;;24.70;99.90;;;;;;5099707;28;19928;-83
2023/06/05 11:26:54;;;;;;;;;;;24.80;99.90;;;;;;5099864;28;20346;-85
2023/06/05 11:29:20;;;;;;;;;;;24.60;99.90;;;;;;5096307;28;20325;-84
2023/06/05 11:31:45;;;;;;;;;;;24.90;99.90;;;;;;5087385;28;20289;-84
2023/06/05 11:34:13;;;;;;;;;;;25.00;99.90;;;;;;5092659;28;20031;-87
2023/06/05 11:36:38;;;;;;;;;;;24.30;99.90;;;;;;5084951;28;19967;-85
2023/06/05 11:39:04;;;;;;;;;;;24.60;99.90;;;;;;5101196;28;20038;-85
2023/06/05 11:41:30;;;;;;;;;;;24.90;99.90;;;;;;5098254;28;19928;-84
2023/06/05 11:43:58;;;;;;;;;;;25.00;99.90;;;;;;5096389;28;20029;-84
2023/06/05 11:46:39;;;;;;;;;;;24.90;99.90;;;;;;5099313;28;19931;-88
2023/06/05 11:49:05;;;;;;;;;;;25.10;99.90;;;;;;5093532;28;19924;-84
2023/06/05 11:51:35;;;;;;;;;;;24.20;99.90;;;;;;5100547;28;19927;-87
2023/06/05 11:54:01;;;;;;;;;;;24.50;99.90;;;;;;5099849;28;19923;-85
2023/06/05 11:56:27;;;;;;;;;;;24.90;99.90;;;;;;5096581;28;20404;-84
2023/06/05 11:58:54;;;;;;;;;;;24.80;99.90;;;;;;5095669;28;19981;-86
2023/06/05 12:01:23;;;;;;;;;;;25.10;99.90;;;;;;5098009;28;19928;-82
2023/06/05 12:04:00;;;;;;;;;;;24.30;99.90;;;;;;5100625;28;20795;-85
2023/06/05 12:06:26;;;;;;;;;;;24.20;99.90;;;;;;5097208;28;19927;-86
2023/06/05 12:08:52;;;;;;;;;;;24.80;99.90;;;;;;5099034;28;19931;-86
2023/06/05 12:11:27;;;;;;;;;;;25.40;99.90;;;;;;5101253;28;19931;-84
2023/06/05 12:13:54;;;;;;;;;;;25.30;99.90;;;;;;5100094;28;20527;-85
2023/06/05 12:16:20;;;;;;;;;;;24.80;99.90;;;;;;5079774;28;19928;-87
2023/06/05 12:18:47;;;;;;;;;;;25.70;99.90;;;;;;5082333;28;19928;-84
2023/06/05 12:21:23;;;;;;;;;;;24.90;99.90;;;;;;5090145;28;19928;-85
2023/06/05 12:23:49;;;;;;;;;;;25.80;99.90;;;;;;5096465;28;19975;-87
2023/06/05 12:26:15;;;;;;;;;;;24.80;99.60;;;;;;5078272;28;20373;-87
2023/06/05 12:28:42;;;;;;;;;;;25.30;99.90;;;;;;5095260;28;20452;-84
2023/06/05 12:31:07;;;;;;;;;;;25.30;99.90;;;;;;5080854;28;19979;-85
2023/06/05 12:33:45;;;;;;;;;;;25.10;99.90;;;;;;5101830;28;19931;-90
2023/06/05 12:36:10;;;;;;;;;;;25.00;99.90;;;;;;5098713;28;19928;-85
2023/06/05 12:38:37;;;;;;;;;;;25.40;99.90;;;;;;5100883;28;19930;-85
2023/06/05 12:41:02;;;;;;;;;;;25.70;99.90;;;;;;5098058;28;19924;-87
2023/06/05 12:43:28;;;;;;;;;;;25.60;99.90;;;;;;5080207;28;19938;-86
2023/06/05 12:45:54;;;;;;;;;;;25.80;99.90;;;;;;5099555;28;19967;-84
2023/06/05 12:48:20;;;;;;;;;;;25.00;99.90;;;;;;5080292;28;19979;-84
2023/06/05 12:50:46;;;;;;;;;;;25.60;99.90;;;;;;5085058;28;20048;-86
2023/06/05 12:53:12;;;;;;;;;;;26.00;99.90;;;;;;5094476;28;19945;-86
2023/06/05 12:55:38;;;;;;;;;;;25.40;99.40;;;;;;5083658;28;19982;-85
2023/06/05 12:58:04;;;;;;;;;;;25.20;99.40;;;;;;5096272;28;19966;-83
2023/06/05 13:00:29;;;;;;;;;;;25.90;99.90;;;;;;5096999;28;19981;-86
2023/06/05 13:02:56;;;;;;;;;;;25.70;98.90;;;;;;5094872;28;19979;-84
2023/06/05 13:05:22;;;;;;;;;;;26.00;99.90;;;;;;5096671;28;19982;-87
2023/06/05 13:07:49;;;;;;;;;;;25.70;97.90;;;;;;5100724;28;19931;-87
2023/06/05 13:10:15;;;;;;;;;;;25.10;98.90;;;;;;5099075;28;19924;-85
2023/06/05 13:12:42;;;;;;;;;;;25.20;99.90;;;;;;5099089;28;19935;-85
2023/06/05 13:15:08;;;;;;;;;;;25.30;98.60;;;;;;5079214;28;19939;-86
2023/06/05 13:17:35;;;;;;;;;;;25.70;99.00;;;;;;5097510;28;20046;-84
2023/06/05 13:20:06;;;;;;;;;;;25.80;99.80;;;;;;5082651;28;19975;-86
2023/06/05 13:22:31;;;;;;;;;;;26.10;99.90;;;;;;5095159;28;19931;-87
2023/06/05 13:24:57;;;;;;;;;;;25.90;99.80;;;;;;5098616;28;20312;-85
2023/06/05 13:27:23;;;;;;;;;;;26.10;99.30;;;;;;5083194;28;19930;-84
2023/06/05 13:29:48;;;;;;;;;;;26.20;98.90;;;;;;5100663;28;19959;-87
2023/06/05 13:32:14;;;;;;;;;;;26.00;98.40;;;;;;5099388;28;19934;-84
2023/06/05 13:34:39;;;;;;;;;;;26.10;97.00;;;;;;5083762;28;19935;-85
2023/06/05 13:37:05;;;;;;;;;;;26.30;98.90;;;;;;5096380;28;19934;-86
2023/06/05 13:39:31;;;;;;;;;;;25.70;98.00;;;;;;5099091;28;20011;-89
2023/06/05 13:41:56;;;;;;;;;;;26.00;97.60;;;;;;5089747;28;20274;-85
2023/06/05 13:44:22;;;;;;;;;;;25.70;97.00;;;;;;5075670;28;19976;-82
2023/06/05 13:46:47;;;;;;;;;;;26.20;98.40;;;;;;5076633;28;19938;-86
2023/06/05 13:49:13;;;;;;;;;;;26.10;97.20;;;;;;5075791;28;19935;-83
2023/06/05 13:51:39;;;;;;;;;;;25.60;98.40;;;;;;5075508;28;20007;-87
2023/06/05 13:54:05;;;;;;;;;;;26.20;99.70;;;;;;5077121;28;19927;-86
2023/06/05 13:56:30;;;;;;;;;;;25.60;97.30;;;;;;5082104;28;19936;-86
2023/06/05 13:58:57;;;;;;;;;;;25.60;97.90;;;;;;5096590;28;20056;-85
2023/06/05 14:01:23;;;;;;;;;;;25.10;98.20;;;;;;5093918;28;19932;-85
2023/06/05 14:03:48;;;;;;;;;;;26.00;99.30;;;;;;5099145;28;19935;-85
2023/06/05 14:06:14;;;;;;;;;;;25.80;98.00;;;;;;5072635;28;19935;-84
2023/06/05 14:08:39;;;;;;;;;;;26.70;99.70;;;;;;5098831;28;19928;-85
2023/06/05 14:11:05;;;;;;;;;;;25.40;95.60;;;;;;5094660;28;20068;-86
2023/06/05 14:13:30;;;;;;;;;;;26.10;98.30;;;;;;5099759;28;19966;-84
2023/06/05 14:15:56;;;;;;;;;;;25.60;97.20;;;;;;5096750;28;19927;-85
2023/06/05 14:18:21;;;;;;;;;;;25.80;97.80;;;;;;5078427;28;20380;-89